Aviation Digital Data Service (ADDS)

Output produced by METARs form (1920 UTC 23 July 2017)
found at http://www.aviationweather.gov/adds/metars/
 
KSMO 231851Z 24006KT 7SM FEW014 23/19 A2990 RMK AO2 SLP124 T02330189
KSMO 231743Z 2318/2418 23005KT P6SM FEW010 
     FM232000 24008KT P6SM SKC 
     FM240500 VRB05KT P6SM SKC 
     FM241000 VRB05KT P6SM OVC010
       
KLAX 231853Z 27010KT 9SM SCT011 24/19 A2990 RMK AO2 SLP123 T02390189
KLAX 231743Z 2318/2424 24006KT P6SM FEW011 SCT017 
     FM232000 26012KT P6SM SCT015 
     FM240600 26006KT P6SM SKC 
     FM240800 VRB03KT P6SM OVC010 
     FM241700 26006KT P6SM SCT012 
     FM242000 26012KT P6SM SKC
       
KVNY 231851Z 14006KT 10SM CLR 30/17 A2989 RMK AO2 SLP111 T03000172
KVNY 231743Z 2318/2418 13005KT P6SM SKC 
     FM232100 15008KT P6SM SKC 
     FM232300 12006KT P6SM SKC 
     FM240700 VRB05KT P6SM SKC
       
KCMA 231909Z 22006KT 7SM SCT013 23/18 A2989 RMK AO2 T02330183
KCMA 231909Z 2319/2418 23010KT P6SM BKN013 
     FM231930 23010KT P6SM SCT013 
     FM240300 VRB05KT P6SM SKC 
     FM241000 VRB05KT 3SM BR BKN005